sensor_id;sensor_type;location;lat;lon;timestamp;pressure;altitude;pressure_sealevel;temperature
79756;BMP280;69239;50.678;12.280;2023-09-19T00:00:00;96935.41;;;17.76
79756;BMP280;69239;50.678;12.280;2023-09-19T00:02:26;96936.91;;;17.67
79756;BMP280;69239;50.678;12.280;2023-09-19T00:04:52;96946.06;;;17.73
79756;BMP280;69239;50.678;12.280;2023-09-19T00:07:17;96952.91;;;17.74
79756;BMP280;69239;50.678;12.280;2023-09-19T00:09:42;96949.47;;;17.77
79756;BMP280;69239;50.678;12.280;2023-09-19T00:12:09;96951.38;;;17.73
79756;BMP280;69239;50.678;12.280;2023-09-19T00:14:35;96956.69;;;17.76
79756;BMP280;69239;50.678;12.280;2023-09-19T00:17:03;96950.97;;;17.71
79756;BMP280;69239;50.678;12.280;2023-09-19T00:19:34;96963.97;;;17.76
79756;BMP280;69239;50.678;12.280;2023-09-19T00:21:59;96950.59;;;17.69
79756;BMP280;69239;50.678;12.280;2023-09-19T00:24:24;96955.91;;;17.69
79756;BMP280;69239;50.678;12.280;2023-09-19T00:26:50;96955.97;;;17.76
79756;BMP280;69239;50.678;12.280;2023-09-19T00:29:15;96965.84;;;17.75
79756;BMP280;69239;50.678;12.280;2023-09-19T00:31:44;96962.00;;;17.66
79756;BMP280;69239;50.678;12.280;2023-09-19T00:34:09;96962.78;;;17.70
79756;BMP280;69239;50.678;12.280;2023-09-19T00:36:36;96965.78;;;17.72
79756;BMP280;69239;50.678;12.280;2023-09-19T00:39:04;96957.81;;;17.68
79756;BMP280;69239;50.678;12.280;2023-09-19T00:41:31;96955.91;;;17.69
79756;BMP280;69239;50.678;12.280;2023-09-19T00:43:56;96953.59;;;17.63
79756;BMP280;69239;50.678;12.280;2023-09-19T00:46:22;96958.94;;;17.67
79756;BMP280;69239;50.678;12.280;2023-09-19T00:48:47;96939.09;;;17.57
79756;BMP280;69239;50.678;12.280;2023-09-19T00:51:13;96941.72;;;17.50
79756;BMP280;69239;50.678;12.280;2023-09-19T00:53:39;96962.72;;;17.62
79756;BMP280;69239;50.678;12.280;2023-09-19T00:56:07;96964.25;;;17.60
79756;BMP280;69239;50.678;12.280;2023-09-19T00:58:33;96956.22;;;17.56
79756;BMP280;69239;50.678;12.280;2023-09-19T01:01:01;96958.09;;;17.52
79756;BMP280;69239;50.678;12.280;2023-09-19T01:03:27;96961.84;;;17.44
79756;BMP280;69239;50.678;12.280;2023-09-19T01:05:52;96968.72;;;17.52
79756;BMP280;69239;50.678;12.280;2023-09-19T01:08:18;96962.25;;;17.46
79756;BMP280;69239;50.678;12.280;2023-09-19T01:10:52;96975.94;;;17.52
79756;BMP280;69239;50.678;12.280;2023-09-19T01:13:54;96964.91;;;17.50
79756;BMP280;69239;50.678;12.280;2023-09-19T01:19:33;96985.44;;;17.49
79756;BMP280;69239;50.678;12.280;2023-09-19T01:22:23;96987.69;;;17.47
79756;BMP280;69239;50.678;12.280;2023-09-19T01:28:07;96997.53;;;17.43
79756;BMP280;69239;50.678;12.280;2023-09-19T01:30:40;97010.84;;;17.43
79756;BMP280;69239;50.678;12.280;2023-09-19T01:33:08;97004.34;;;17.37
79756;BMP280;69239;50.678;12.280;2023-09-19T01:35:37;97017.28;;;17.39
79756;BMP280;69239;50.678;12.280;2023-09-19T01:38:05;97011.50;;;17.29
79756;BMP280;69239;50.678;12.280;2023-09-19T01:40:33;97010.75;;;17.29
79756;BMP280;69239;50.678;12.280;2023-09-19T01:43:05;97018.78;;;17.36
79756;BMP280;69239;50.678;12.280;2023-09-19T01:48:54;97019.53;;;17.33
79756;BMP280;69239;50.678;12.280;2023-09-19T01:51:32;97009.53;;;17.23
79756;BMP280;69239;50.678;12.280;2023-09-19T01:54:10;97024.03;;;17.29
79756;BMP280;69239;50.678;12.280;2023-09-19T01:56:48;97023.66;;;17.27
79756;BMP280;69239;50.678;12.280;2023-09-19T01:59:24;97022.84;;;17.23
79756;BMP280;69239;50.678;12.280;2023-09-19T02:01:53;97022.47;;;17.21
79756;BMP280;69239;50.678;12.280;2023-09-19T02:04:19;97022.44;;;17.17
79756;BMP280;69239;50.678;12.280;2023-09-19T02:06:44;97023.19;;;17.18
79756;BMP280;69239;50.678;12.280;2023-09-19T02:09:13;97023.91;;;17.15
79756;BMP280;69239;50.678;12.280;2023-09-19T02:11:39;97025.47;;;17.19
79756;BMP280;69239;50.678;12.280;2023-09-19T02:14:05;97024.69;;;17.15
79756;BMP280;69239;50.678;12.280;2023-09-19T02:16:33;97035.00;;;17.17
79756;BMP280;69239;50.678;12.280;2023-09-19T02:18:59;97032.31;;;17.17
79756;BMP280;69239;50.678;12.280;2023-09-19T02:21:25;97022.78;;;17.16
79756;BMP280;69239;50.678;12.280;2023-09-19T02:23:51;97023.13;;;17.11
79756;BMP280;69239;50.678;12.280;2023-09-19T02:26:16;97023.16;;;17.14
79756;BMP280;69239;50.678;12.280;2023-09-19T02:28:44;97020.13;;;17.16
79756;BMP280;69239;50.678;12.280;2023-09-19T02:31:11;97017.06;;;17.14
79756;BMP280;69239;50.678;12.280;2023-09-19T02:33:37;97024.72;;;17.19
79756;BMP280;69239;50.678;12.280;2023-09-19T02:36:02;97020.50;;;17.14
79756;BMP280;69239;50.678;12.280;2023-09-19T02:38:29;97020.94;;;17.20
79756;BMP280;69239;50.678;12.280;2023-09-19T02:40:54;97022.78;;;17.16
79756;BMP280;69239;50.678;12.280;2023-09-19T02:43:20;97030.41;;;17.17
79756;BMP280;69239;50.678;12.280;2023-09-19T02:45:46;97021.19;;;17.08
79756;BMP280;69239;50.678;12.280;2023-09-19T02:48:12;97031.56;;;17.16
79756;BMP280;69239;50.678;12.280;2023-09-19T02:50:37;97041.38;;;17.12
79756;BMP280;69239;50.678;12.280;2023-09-19T02:53:05;97036.03;;;17.12
79756;BMP280;69239;50.678;12.280;2023-09-19T02:55:31;97036.44;;;17.11
79756;BMP280;69239;50.678;12.280;2023-09-19T02:57:57;97050.50;;;17.15
79756;BMP280;69239;50.678;12.280;2023-09-19T03:00:23;97047.44;;;17.09
79756;BMP280;69239;50.678;12.280;2023-09-19T03:02:50;97052.78;;;17.13
79756;BMP280;69239;50.678;12.280;2023-09-19T03:05:16;97050.44;;;17.08
79756;BMP280;69239;50.678;12.280;2023-09-19T03:07:41;97051.97;;;17.09
79756;BMP280;69239;50.678;12.280;2023-09-19T03:10:08;97061.81;;;17.05
79756;BMP280;69239;50.678;12.280;2023-09-19T03:12:34;97054.56;;;17.02
79756;BMP280;69239;50.678;12.280;2023-09-19T03:14:59;97060.28;;;17.04
79756;BMP280;69239;50.678;12.280;2023-09-19T03:17:25;97041.91;;;16.91
79756;BMP280;69239;50.678;12.280;2023-09-19T03:19:50;97056.47;;;17.01
79756;BMP280;69239;50.678;12.280;2023-09-19T03:22:16;97050.28;;;16.93
79756;BMP280;69239;50.678;12.280;2023-09-19T03:24:41;97066.69;;;16.99
79756;BMP280;69239;50.678;12.280;2023-09-19T03:27:12;97062.88;;;16.97
79756;BMP280;69239;50.678;12.280;2023-09-19T03:29:41;97072.34;;;16.94
79756;BMP280;69239;50.678;12.280;2023-09-19T03:32:06;97067.00;;;16.90
79756;BMP280;69239;50.678;12.280;2023-09-19T03:34:32;97065.47;;;16.89
79756;BMP280;69239;50.678;12.280;2023-09-19T03:36:57;97070.03;;;16.92
79756;BMP280;69239;50.678;12.280;2023-09-19T03:39:22;97063.50;;;16.86
79756;BMP280;69239;50.678;12.280;2023-09-19T03:41:48;97078.41;;;16.91
79756;BMP280;69239;50.678;12.280;2023-09-19T03:44:14;97077.63;;;16.90
79756;BMP280;69239;50.678;12.280;2023-09-19T03:46:40;97063.13;;;16.84
79756;BMP280;69239;50.678;12.280;2023-09-19T03:49:05;97065.41;;;16.86
79756;BMP280;69239;50.678;12.280;2023-09-19T03:51:31;97069.25;;;16.92
79756;BMP280;69239;50.678;12.280;2023-09-19T03:53:56;97064.66;;;16.85
79756;BMP280;69239;50.678;12.280;2023-09-19T03:56:22;97064.66;;;16.85
79756;BMP280;69239;50.678;12.280;2023-09-19T03:58:47;97076.88;;;16.93
79756;BMP280;69239;50.678;12.280;2023-09-19T04:01:12;97056.28;;;16.87
79756;BMP280;69239;50.678;12.280;2023-09-19T04:03:38;97064.34;;;16.90
79756;BMP280;69239;50.678;12.280;2023-09-19T04:06:16;97070.03;;;16.92
79756;BMP280;69239;50.678;12.280;2023-09-19T04:08:42;97075.00;;;16.94
79756;BMP280;69239;50.678;12.280;2023-09-19T04:11:08;97076.88;;;16.93
79756;BMP280;69239;50.678;12.280;2023-09-19T04:13:34;97081.88;;;16.95
79756;BMP280;69239;50.678;12.280;2023-09-19T04:15:59;97083.00;;;16.98
79756;BMP280;69239;50.678;12.280;2023-09-19T04:18:25;97082.25;;;16.97
79756;BMP280;69239;50.678;12.280;2023-09-19T04:20:51;97086.88;;;17.04
79756;BMP280;69239;50.678;12.280;2023-09-19T04:23:17;97088.38;;;17.01
79756;BMP280;69239;50.678;12.280;2023-09-19T04:25:43;97095.28;;;17.06
79756;BMP280;69239;50.678;12.280;2023-09-19T04:28:09;97089.53;;;17.04
79756;BMP280;69239;50.678;12.280;2023-09-19T04:30:36;97079.22;;;16.95
79756;BMP280;69239;50.678;12.280;2023-09-19T04:33:02;97093.75;;;17.08
79756;BMP280;69239;50.678;12.280;2023-09-19T04:35:28;97073.91;;;16.99
79756;BMP280;69239;50.678;12.280;2023-09-19T04:37:57;97083.88;;;17.09
79756;BMP280;69239;50.678;12.280;2023-09-19T04:40:22;97079.00;;;17.11
79756;BMP280;69239;50.678;12.280;2023-09-19T04:42:56;97075.59;;;17.14
79756;BMP280;69239;50.678;12.280;2023-09-19T04:45:25;97081.00;;;17.21
79756;BMP280;69239;50.678;12.280;2023-09-19T04:47:54;97087.81;;;17.22
79756;BMP280;69239;50.678;12.280;2023-09-19T04:50:21;97100.78;;;17.23
79756;BMP280;69239;50.678;12.280;2023-09-19T04:52:51;97099.22;;;17.22
79756;BMP280;69239;50.678;12.280;2023-09-19T04:55:19;97091.63;;;17.21
79756;BMP280;69239;50.678;12.280;2023-09-19T04:57:49;97088.56;;;17.19
79756;BMP280;69239;50.678;12.280;2023-09-19T05:00:16;97090.09;;;17.20
79756;BMP280;69239;50.678;12.280;2023-09-19T05:02:49;97090.88;;;17.20
79756;BMP280;69239;50.678;12.280;2023-09-19T05:05:14;97098.84;;;17.20
79756;BMP280;69239;50.678;12.280;2023-09-19T05:07:42;97093.88;;;17.19
79756;BMP280;69239;50.678;12.280;2023-09-19T05:10:08;97100.34;;;17.18
79756;BMP280;69239;50.678;12.280;2023-09-19T05:12:36;97098.41;;;17.15
79756;BMP280;69239;50.678;12.280;2023-09-19T05:15:03;97105.25;;;17.16
79756;BMP280;69239;50.678;12.280;2023-09-19T05:17:30;97110.94;;;17.14
79756;BMP280;69239;50.678;12.280;2023-09-19T05:19:57;97109.47;;;17.17
79756;BMP280;69239;50.678;12.280;2023-09-19T05:22:36;97098.81;;;17.17
79756;BMP280;69239;50.678;12.280;2023-09-19T05:25:06;97106.44;;;17.22
79756;BMP280;69239;50.678;12.280;2023-09-19T05:27:32;97115.94;;;17.23
79756;BMP280;69239;50.678;12.280;2023-09-19T05:29:59;97123.94;;;17.23
79756;BMP280;69239;50.678;12.280;2023-09-19T05:32:24;97109.84;;;17.19
79756;BMP280;69239;50.678;12.280;2023-09-19T05:34:50;97121.28;;;17.23
79756;BMP280;69239;50.678;12.280;2023-09-19T05:37:19;97120.50;;;17.19
79756;BMP280;69239;50.678;12.280;2023-09-19T05:39:44;97110.56;;;17.16
79756;BMP280;69239;50.678;12.280;2023-09-19T05:42:11;97121.28;;;17.23
79756;BMP280;69239;50.678;12.280;2023-09-19T05:44:36;97123.16;;;17.22
79756;BMP280;69239;50.678;12.280;2023-09-19T05:47:03;97128.88;;;17.21
79756;BMP280;69239;50.678;12.280;2023-09-19T05:49:28;97126.22;;;17.21
79756;BMP280;69239;50.678;12.280;2023-09-19T05:51:54;97128.09;;;17.20
79756;BMP280;69239;50.678;12.280;2023-09-19T05:54:22;97128.47;;;17.22
79756;BMP280;69239;50.678;12.280;2023-09-19T05:56:47;97118.22;;;17.21
79756;BMP280;69239;50.678;12.280;2023-09-19T05:59:14;97123.63;;;17.28
79756;BMP280;69239;50.678;12.280;2023-09-19T06:01:42;97125.50;;;17.27
79756;BMP280;69239;50.678;12.280;2023-09-19T06:04:08;97122.91;;;17.31
79756;BMP280;69239;50.678;12.280;2023-09-19T06:06:33;97134.03;;;17.40
79756;BMP280;69239;50.678;12.280;2023-09-19T06:09:04;97132.19;;;17.48
79756;BMP280;69239;50.678;12.280;2023-09-19T06:11:34;97125.78;;;17.52
79756;BMP280;69239;50.678;12.280;2023-09-19T06:14:03;97126.16;;;17.54
79756;BMP280;69239;50.678;12.280;2023-09-19T06:16:29;97127.75;;;17.59
79756;BMP280;69239;50.678;12.280;2023-09-19T06:18:57;97123.97;;;17.63
79756;BMP280;69239;50.678;12.280;2023-09-19T06:21:22;97114.84;;;17.64
79756;BMP280;69239;50.678;12.280;2023-09-19T06:23:48;97139.34;;;17.81
79756;BMP280;69239;50.678;12.280;2023-09-19T06:26:14;97148.53;;;17.87
79756;BMP280;69239;50.678;12.280;2023-09-19T06:28:40;97139.41;;;17.88
79756;BMP280;69239;50.678;12.280;2023-09-19T06:31:08;97152.09;;;18.05
79756;BMP280;69239;50.678;12.280;2023-09-19T06:33:36;97157.13;;;18.17
79756;BMP280;69239;50.678;12.280;2023-09-19T06:36:04;97172.22;;;18.50
79756;BMP280;69239;50.678;12.280;2023-09-19T06:38:30;97169.16;;;19.67
79756;BMP280;69239;50.678;12.280;2023-09-19T06:40:58;97170.22;;;21.35
79756;BMP280;69239;50.678;12.280;2023-09-19T06:43:24;97170.41;;;22.47
79756;BMP280;69239;50.678;12.280;2023-09-19T06:45:49;97173.00;;;23.88
79756;BMP280;69239;50.678;12.280;2023-09-19T06:48:17;97175.25;;;25.25
79756;BMP280;69239;50.678;12.280;2023-09-19T06:50:43;97173.53;;;26.50
79756;BMP280;69239;50.678;12.280;2023-09-19T06:53:10;97185.31;;;27.66
79756;BMP280;69239;50.678;12.280;2023-09-19T06:55:35;97181.69;;;28.25
79756;BMP280;69239;50.678;12.280;2023-09-19T06:58:02;97174.97;;;28.61
79756;BMP280;69239;50.678;12.280;2023-09-19T07:00:27;97181.31;;;29.16
79756;BMP280;69239;50.678;12.280;2023-09-19T07:03:01;97177.59;;;29.50
79756;BMP280;69239;50.678;12.280;2023-09-19T07:05:30;97195.53;;;29.65
79756;BMP280;69239;50.678;12.280;2023-09-19T07:07:57;97187.81;;;29.82
79756;BMP280;69239;50.678;12.280;2023-09-19T07:10:26;97191.72;;;29.81
79756;BMP280;69239;50.678;12.280;2023-09-19T07:12:56;97188.97;;;29.17
79756;BMP280;69239;50.678;12.280;2023-09-19T07:15:23;97193.31;;;28.57
79756;BMP280;69239;50.678;12.280;2023-09-19T07:17:51;97194.28;;;28.41
79756;BMP280;69239;50.678;12.280;2023-09-19T07:20:17;97200.88;;;28.71
79756;BMP280;69239;50.678;12.280;2023-09-19T07:22:42;97209.63;;;28.75
79756;BMP280;69239;50.678;12.280;2023-09-19T07:25:08;97191.75;;;29.45
79756;BMP280;69239;50.678;12.280;2023-09-19T07:27:33;97198.97;;;29.84
79756;BMP280;69239;50.678;12.280;2023-09-19T07:30:00;97200.91;;;30.02
79756;BMP280;69239;50.678;12.280;2023-09-19T07:32:25;97211.19;;;29.98
79756;BMP280;69239;50.678;12.280;2023-09-19T07:34:50;97211.34;;;29.76
79756;BMP280;69239;50.678;12.280;2023-09-19T07:37:16;97210.72;;;29.90
79756;BMP280;69239;50.678;12.280;2023-09-19T07:39:42;97220.84;;;29.44
79756;BMP280;69239;50.678;12.280;2023-09-19T07:42:08;97230.22;;;28.72
79756;BMP280;69239;50.678;12.280;2023-09-19T07:44:35;97227.41;;;28.23
79756;BMP280;69239;50.678;12.280;2023-09-19T07:47:02;97242.91;;;27.54
79756;BMP280;69239;50.678;12.280;2023-09-19T07:49:28;97233.41;;;27.24
79756;BMP280;69239;50.678;12.280;2023-09-19T07:51:54;97236.56;;;26.97
79756;BMP280;69239;50.678;12.280;2023-09-19T07:54:20;97236.09;;;26.32
79756;BMP280;69239;50.678;12.280;2023-09-19T07:56:46;97250.34;;;25.71
79756;BMP280;69239;50.678;12.280;2023-09-19T07:59:11;97256.09;;;25.25
79756;BMP280;69239;50.678;12.280;2023-09-19T08:01:37;97265.41;;;24.84
79756;BMP280;69239;50.678;12.280;2023-09-19T08:04:02;97267.59;;;24.50
79756;BMP280;69239;50.678;12.280;2023-09-19T08:06:28;97284.13;;;24.28
79756;BMP280;69239;50.678;12.280;2023-09-19T08:08:54;97274.56;;;24.04
79756;BMP280;69239;50.678;12.280;2023-09-19T08:11:20;97294.47;;;23.83
79756;BMP280;69239;50.678;12.280;2023-09-19T08:13:46;97299.03;;;23.60
79756;BMP280;69239;50.678;12.280;2023-09-19T08:16:15;97297.88;;;23.34
79756;BMP280;69239;50.678;12.280;2023-09-19T08:18:41;97302.53;;;23.26
79756;BMP280;69239;50.678;12.280;2023-09-19T08:21:07;97294.47;;;23.26
79756;BMP280;69239;50.678;12.280;2023-09-19T08:23:38;97303.50;;;23.39
79756;BMP280;69239;50.678;12.280;2023-09-19T08:26:04;97307.50;;;23.31
79756;BMP280;69239;50.678;12.280;2023-09-19T08:28:36;97300.97;;;23.29
79756;BMP280;69239;50.678;12.280;2023-09-19T08:31:03;97302.13;;;23.31
79756;BMP280;69239;50.678;12.280;2023-09-19T08:33:37;97304.00;;;23.34
79756;BMP280;69239;50.678;12.280;2023-09-19T08:36:04;97297.91;;;23.30
79756;BMP280;69239;50.678;12.280;2023-09-19T08:38:31;97310.97;;;23.28
79756;BMP280;69239;50.678;12.280;2023-09-19T08:41:04;97310.38;;;23.13
79756;BMP280;69239;50.678;12.280;2023-09-19T08:43:30;97309.72;;;23.02
79756;BMP280;69239;50.678;12.280;2023-09-19T08:48:31;97298.97;;;22.68
79756;BMP280;69239;50.678;12.280;2023-09-19T08:51:02;97313.63;;;22.60
79756;BMP280;69239;50.678;12.280;2023-09-19T08:56:17;97309.13;;;22.50
79756;BMP280;69239;50.678;12.280;2023-09-19T08:58:48;97315.47;;;22.70
79756;BMP280;69239;50.678;12.280;2023-09-19T09:01:17;97300.81;;;22.79
79756;BMP280;69239;50.678;12.280;2023-09-19T09:03:51;97316.00;;;22.92
79756;BMP280;69239;50.678;12.280;2023-09-19T09:06:17;97312.88;;;22.97
79756;BMP280;69239;50.678;12.280;2023-09-19T09:08:44;97313.63;;;22.98
79756;BMP280;69239;50.678;12.280;2023-09-19T09:11:10;97304.78;;;23.01
79756;BMP280;69239;50.678;12.280;2023-09-19T09:13:36;97311.25;;;23.03
79756;BMP280;69239;50.678;12.280;2023-09-19T09:16:07;97312.47;;;22.99
79756;BMP280;69239;50.678;12.280;2023-09-19T09:18:32;97320.44;;;23.06
79756;BMP280;69239;50.678;12.280;2023-09-19T09:20:58;97320.91;;;23.31
79756;BMP280;69239;50.678;12.280;2023-09-19T09:23:23;97312.03;;;23.65
79756;BMP280;69239;50.678;12.280;2023-09-19T09:25:54;97323.22;;;23.90
79756;BMP280;69239;50.678;12.280;2023-09-19T09:28:23;97326.13;;;23.99
79756;BMP280;69239;50.678;12.280;2023-09-19T09:30:49;97330.63;;;24.06
79756;BMP280;69239;50.678;12.280;2023-09-19T09:33:16;97320.84;;;24.15
79756;BMP280;69239;50.678;12.280;2023-09-19T09:38:18;97318.50;;;24.64
79756;BMP280;69239;50.678;12.280;2023-09-19T09:40:51;97307.78;;;24.80
79756;BMP280;69239;50.678;12.280;2023-09-19T09:43:39;97307.78;;;24.80
79756;BMP280;69239;50.678;12.280;2023-09-19T09:46:17;97311.97;;;24.61
79756;BMP280;69239;50.678;12.280;2023-09-19T09:49:02;97309.47;;;24.51
79756;BMP280;69239;50.678;12.280;2023-09-19T09:52:05;97316.06;;;24.50
79756;BMP280;69239;50.678;12.280;2023-09-19T09:55:01;97317.09;;;24.56
79756;BMP280;69239;50.678;12.280;2023-09-19T09:57:30;97322.81;;;24.58
79756;BMP280;69239;50.678;12.280;2023-09-19T09:59:58;97329.84;;;24.52
79756;BMP280;69239;50.678;12.280;2023-09-19T10:02:40;97331.53;;;24.46
79756;BMP280;69239;50.678;12.280;2023-09-19T10:05:17;97336.22;;;24.38
79756;BMP280;69239;50.678;12.280;2023-09-19T10:07:51;97338.66;;;24.33
79756;BMP280;69239;50.678;12.280;2023-09-19T10:10:34;97336.34;;;24.31
79756;BMP280;69239;50.678;12.280;2023-09-19T10:13:11;97342.53;;;24.31
79756;BMP280;69239;50.678;12.280;2023-09-19T10:15:47;97332.66;;;24.45
79756;BMP280;69239;50.678;12.280;2023-09-19T10:18:26;97320.88;;;24.58
79756;BMP280;69239;50.678;12.280;2023-09-19T10:20:53;97323.50;;;24.62
79756;BMP280;69239;50.678;12.280;2023-09-19T10:23:21;97315.88;;;24.60
79756;BMP280;69239;50.678;12.280;2023-09-19T10:25:51;97319.47;;;24.54
79756;BMP280;69239;50.678;12.280;2023-09-19T10:28:19;97316.06;;;24.50
79756;BMP280;69239;50.678;12.280;2023-09-19T10:30:49;97321.38;;;24.53
79756;BMP280;69239;50.678;12.280;2023-09-19T10:33:20;97311.38;;;24.54
79756;BMP280;69239;50.678;12.280;2023-09-19T10:35:51;97329.72;;;24.59
79756;BMP280;69239;50.678;12.280;2023-09-19T10:38:18;97319.72;;;24.59
79756;BMP280;69239;50.678;12.280;2023-09-19T10:40:53;97322.81;;;24.58
79756;BMP280;69239;50.678;12.280;2023-09-19T10:43:21;97344.41;;;24.54
79756;BMP280;69239;50.678;12.280;2023-09-19T10:45:49;97333.03;;;24.47
79756;BMP280;69239;50.678;12.280;2023-09-19T10:48:18;97325.47;;;24.38
79756;BMP280;69239;50.678;12.280;2023-09-19T10:51:05;97328.66;;;24.33
79756;BMP280;69239;50.678;12.280;2023-09-19T10:53:48;97321.88;;;24.25
79756;BMP280;69239;50.678;12.280;2023-09-19T10:56:23;97335.00;;;24.19
79756;BMP280;69239;50.678;12.280;2023-09-19T10:58:49;97331.97;;;24.17
79756;BMP280;69239;50.678;12.280;2023-09-19T11:01:16;97335.69;;;24.23
79756;BMP280;69239;50.678;12.280;2023-09-19T11:03:42;97323.69;;;24.31
79756;BMP280;69239;50.678;12.280;2023-09-19T11:06:16;97328.00;;;24.49
79756;BMP280;69239;50.678;12.280;2023-09-19T11:09:01;97320.81;;;24.62
79756;BMP280;69239;50.678;12.280;2023-09-19T11:30:43;97329.16;;;24.48
79756;BMP280;69239;50.678;12.280;2023-09-19T11:33:19;97320.03;;;24.42
79756;BMP280;69239;50.678;12.280;2023-09-19T11:36:07;97331.28;;;24.60
79756;BMP280;69239;50.678;12.280;2023-09-19T11:39:01;97330.09;;;24.61
79756;BMP280;69239;50.678;12.280;2023-09-19T11:41:36;97329.91;;;24.48
79756;BMP280;69239;50.678;12.280;2023-09-19T11:46:32;97327.06;;;24.79
79756;BMP280;69239;50.678;12.280;2023-09-19T11:49:08;97324.50;;;24.91
79756;BMP280;69239;50.678;12.280;2023-09-19T11:51:41;97326.84;;;24.89
79756;BMP280;69239;50.678;12.280;2023-09-19T11:54:11;97335.50;;;24.81
79756;BMP280;69239;50.678;12.280;2023-09-19T11:56:44;97321.19;;;24.64
79756;BMP280;69239;50.678;12.280;2023-09-19T11:59:11;97328.69;;;24.53
79756;BMP280;69239;50.678;12.280;2023-09-19T12:01:38;97329.19;;;24.44
79756;BMP280;69239;50.678;12.280;2023-09-19T12:04:11;97324.44;;;24.32
79756;BMP280;69239;50.678;12.280;2023-09-19T12:06:37;97332.91;;;24.30
79756;BMP280;69239;50.678;12.280;2023-09-19T12:09:04;97323.78;;;24.48
79756;BMP280;69239;50.678;12.280;2023-09-19T12:11:41;97314.09;;;24.74
79756;BMP280;69239;50.678;12.280;2023-09-19T12:14:09;97306.75;;;24.94
79756;BMP280;69239;50.678;12.280;2023-09-19T12:16:34;97305.63;;;25.11
79756;BMP280;69239;50.678;12.280;2023-09-19T12:19:18;97309.22;;;25.24
79756;BMP280;69239;50.678;12.280;2023-09-19T12:21:54;97297.88;;;25.33
79756;BMP280;69239;50.678;12.280;2023-09-19T12:24:19;97307.81;;;25.36
79756;BMP280;69239;50.678;12.280;2023-09-19T12:26:46;97306.88;;;25.26
79756;BMP280;69239;50.678;12.280;2023-09-19T12:29:19;97304.94;;;25.07
79756;BMP280;69239;50.678;12.280;2023-09-19T12:31:56;97305.38;;;24.86
79756;BMP280;69239;50.678;12.280;2023-09-19T12:34:32;97303.94;;;24.81
79756;BMP280;69239;50.678;12.280;2023-09-19T12:37:04;97305.75;;;24.68
79756;BMP280;69239;50.678;12.280;2023-09-19T12:40:09;97294.75;;;24.79
79756;BMP280;69239;50.678;12.280;2023-09-19T12:42:43;97294.66;;;24.82
79756;BMP280;69239;50.678;12.280;2023-09-19T12:45:10;97287.22;;;24.70
79756;BMP280;69239;50.678;12.280;2023-09-19T12:47:36;97287.28;;;24.66
79756;BMP280;69239;50.678;12.280;2023-09-19T12:50:13;97296.28;;;24.60
79756;BMP280;69239;50.678;12.280;2023-09-19T12:52:52;97306.00;;;24.54
79756;BMP280;69239;50.678;12.280;2023-09-19T12:55:30;97304.53;;;24.49
79756;BMP280;69239;50.678;12.280;2023-09-19T12:58:13;97300.78;;;24.43
79756;BMP280;69239;50.678;12.280;2023-09-19T13:00:41;97303.03;;;24.45
79756;BMP280;69239;50.678;12.280;2023-09-19T13:08:31;97296.94;;;24.64
79756;BMP280;69239;50.678;12.280;2023-09-19T13:11:12;97300.63;;;24.54
79756;BMP280;69239;50.678;12.280;2023-09-19T13:13:51;97306.72;;;24.54
79756;BMP280;69239;50.678;12.280;2023-09-19T13:16:21;97297.34;;;24.43
79756;BMP280;69239;50.678;12.280;2023-09-19T13:18:54;97296.91;;;24.44
79756;BMP280;69239;50.678;12.280;2023-09-19T13:21:34;97298.72;;;24.51
79756;BMP280;69239;50.678;12.280;2023-09-19T13:24:20;97315.25;;;24.53
79756;BMP280;69239;50.678;12.280;2023-09-19T13:26:46;97293.00;;;24.49
79756;BMP280;69239;50.678;12.280;2023-09-19T13:29:11;97305.16;;;24.57
79756;BMP280;69239;50.678;12.280;2023-09-19T13:31:37;97306.19;;;24.63
79756;BMP280;69239;50.678;12.280;2023-09-19T13:34:06;97304.22;;;24.67
79756;BMP280;69239;50.678;12.280;2023-09-19T13:36:32;97308.81;;;24.66
79756;BMP280;69239;50.678;12.280;2023-09-19T13:38:57;97308.44;;;24.68
79756;BMP280;69239;50.678;12.280;2023-09-19T13:41:24;97318.69;;;24.73
79756;BMP280;69239;50.678;12.280;2023-09-19T13:43:49;97313.16;;;24.80
79756;BMP280;69239;50.678;12.280;2023-09-19T13:46:15;97310.00;;;24.85
79756;BMP280;69239;50.678;12.280;2023-09-19T13:48:42;97309.97;;;24.89
79756;BMP280;69239;50.678;12.280;2023-09-19T13:51:08;97303.81;;;24.88
79756;BMP280;69239;50.678;12.280;2023-09-19T13:53:33;97319.25;;;24.84
79756;BMP280;69239;50.678;12.280;2023-09-19T13:55:59;97320.88;;;24.82
79756;BMP280;69239;50.678;12.280;2023-09-19T13:58:24;97319.19;;;24.68
79756;BMP280;69239;50.678;12.280;2023-09-19T14:00:50;97305.09;;;24.60
79756;BMP280;69239;50.678;12.280;2023-09-19T14:03:16;97306.66;;;24.58
79756;BMP280;69239;50.678;12.280;2023-09-19T14:05:41;97308.94;;;24.59
79756;BMP280;69239;50.678;12.280;2023-09-19T14:08:07;97311.72;;;24.56
79756;BMP280;69239;50.678;12.280;2023-09-19T14:10:34;97306.03;;;24.50
79756;BMP280;69239;50.678;12.280;2023-09-19T14:13:00;97314.66;;;24.42
79756;BMP280;69239;50.678;12.280;2023-09-19T14:15:26;97310.16;;;24.35
79756;BMP280;69239;50.678;12.280;2023-09-19T14:17:58;97309.50;;;24.27
79756;BMP280;69239;50.678;12.280;2023-09-19T14:20:24;97313.84;;;24.21
79756;BMP280;69239;50.678;12.280;2023-09-19T14:22:52;97310.09;;;24.15
79756;BMP280;69239;50.678;12.280;2023-09-19T14:25:17;97310.97;;;24.09
79756;BMP280;69239;50.678;12.280;2023-09-19T14:27:42;97307.56;;;24.05
79756;BMP280;69239;50.678;12.280;2023-09-19T14:30:08;97298.47;;;23.99
79756;BMP280;69239;50.678;12.280;2023-09-19T14:32:34;97311.56;;;23.97
79756;BMP280;69239;50.678;12.280;2023-09-19T14:35:01;97307.84;;;23.87
79756;BMP280;69239;50.678;12.280;2023-09-19T14:37:26;97312.16;;;23.81
79756;BMP280;69239;50.678;12.280;2023-09-19T14:39:53;97319.16;;;23.75
79756;BMP280;69239;50.678;12.280;2023-09-19T14:42:18;97308.88;;;23.70
79756;BMP280;69239;50.678;12.280;2023-09-19T14:44:43;97310.50;;;23.64
79756;BMP280;69239;50.678;12.280;2023-09-19T14:47:09;97319.06;;;23.55
79756;BMP280;69239;50.678;12.280;2023-09-19T14:49:35;97310.03;;;23.42